Time;durP1;ratioP1;P1;durP2;ratioP2;P2;SDS_P1;SDS_P2;PMS_P1;PMS_P2;Temp;Humidity;BMP_temperature;BMP_pressure;BME280_temperature;BME280_humidity;BME280_pressure;Samples;Min_cycle;Max_cycle;Signal;HPM_P1;HPM_P2
2021/03/15 00:00:46;;;;;;;16.27;5.03;;;6.50;99.90;;;;;;4951273;28;20290;-73
2021/03/15 00:03:13;;;;;;;13.52;5.45;;;6.50;99.90;;;;;;4968003;28;20210;-73
2021/03/15 00:05:39;;;;;;;9.80;5.15;;;6.50;99.90;;;;;;4973005;28;20606;-73
2021/03/15 00:08:06;;;;;;;9.33;5.50;;;6.50;99.90;;;;;;4967164;28;20187;-73
2021/03/15 00:10:32;;;;;;;11.75;4.90;;;6.50;99.90;;;;;;4951475;28;21735;-73
2021/03/15 00:12:58;;;;;;;10.68;5.00;;;6.60;99.90;;;;;;4966721;28;20744;-73
2021/03/15 00:15:25;;;;;;;9.95;5.28;;;6.60;99.90;;;;;;4954424;28;20217;-73
2021/03/15 00:17:52;;;;;;;10.68;5.15;;;6.50;99.90;;;;;;4961337;28;21239;-73
2021/03/15 00:20:20;;;;;;;11.68;5.05;;;6.50;99.90;;;;;;4951704;28;20763;-73
2021/03/15 00:22:48;;;;;;;12.48;5.05;;;6.50;99.90;;;;;;4971193;28;20552;-73
2021/03/15 00:25:15;;;;;;;9.43;4.45;;;6.50;99.90;;;;;;4966121;28;20199;-73
2021/03/15 00:27:44;;;;;;;8.82;5.35;;;6.50;99.90;;;;;;4948204;28;20268;-73
2021/03/15 00:30:13;;;;;;;10.27;5.22;;;6.50;99.90;;;;;;4944779;28;20203;-73
2021/03/15 00:32:40;;;;;;;14.52;4.93;;;6.40;99.90;;;;;;4967679;28;20217;-73
2021/03/15 00:35:08;;;;;;;12.63;5.85;;;6.40;99.90;;;;;;4969049;28;20567;-73
2021/03/15 00:37:35;;;;;;;7.25;5.00;;;6.50;99.90;;;;;;4965751;28;20199;-73
2021/03/15 00:40:03;;;;;;;11.82;5.93;;;6.40;99.90;;;;;;4976026;28;20211;-73
2021/03/15 00:42:29;;;;;;;16.10;5.95;;;6.30;99.90;;;;;;4967231;28;20726;-73
2021/03/15 00:44:55;;;;;;;10.85;5.53;;;6.30;99.90;;;;;;4966515;28;20198;-73
2021/03/15 00:47:21;;;;;;;10.63;5.55;;;6.20;99.90;;;;;;4967239;28;20222;-73
2021/03/15 00:49:49;;;;;;;11.98;5.78;;;6.20;99.90;;;;;;4964505;28;20586;-73
2021/03/15 00:52:15;;;;;;;11.07;6.60;;;6.20;99.90;;;;;;4963015;28;20875;-73
2021/03/15 00:54:41;;;;;;;11.35;6.05;;;6.10;99.90;;;;;;4966177;28;20195;-73
2021/03/15 00:57:20;;;;;;;10.93;5.47;;;6.00;99.90;;;;;;4968995;28;21044;-73
2021/03/15 00:59:46;;;;;;;10.05;6.28;;;6.00;99.90;;;;;;4948948;28;20194;-73
2021/03/15 01:02:12;;;;;;;12.15;6.38;;;6.00;99.90;;;;;;4949414;28;20230;-73
2021/03/15 01:04:39;;;;;;;11.68;5.63;;;6.10;99.90;;;;;;4940675;28;20575;-73
2021/03/15 01:07:14;;;;;;;12.57;5.88;;;6.10;99.90;;;;;;4952289;28;20214;-73
2021/03/15 01:09:42;;;;;;;13.27;6.38;;;6.10;99.90;;;;;;4960027;28;20554;-73
2021/03/15 01:12:29;;;;;;;12.65;6.90;;;6.10;99.90;;;;;;4948036;28;20214;-73
2021/03/15 01:14:55;;;;;;;16.63;6.65;;;6.00;99.90;;;;;;4965955;28;20194;-73
2021/03/15 01:17:29;;;;;;;12.07;6.03;;;6.00;99.90;;;;;;4950555;28;20198;-73
2021/03/15 01:19:57;;;;;;;17.95;6.93;;;6.00;99.90;;;;;;4963402;28;20194;-73
2021/03/15 01:22:23;;;;;;;14.27;8.30;;;6.10;99.90;;;;;;4967600;28;20338;-73
2021/03/15 01:24:49;;;;;;;12.53;6.47;;;6.00;99.90;;;;;;4964491;28;20209;-73
2021/03/15 01:27:15;;;;;;;14.10;6.30;;;6.00;99.90;;;;;;4967315;28;20494;-73
2021/03/15 01:29:41;;;;;;;13.98;6.18;;;6.00;99.90;;;;;;4965492;28;20191;-73
2021/03/15 01:32:08;;;;;;;15.60;7.43;;;6.10;99.90;;;;;;4966275;28;20211;-73
2021/03/15 01:34:34;;;;;;;12.00;6.55;;;6.10;99.90;;;;;;4964926;28;20461;-73
2021/03/15 01:37:00;;;;;;;14.77;7.35;;;6.10;99.90;;;;;;4968719;28;20202;-73
2021/03/15 01:39:26;;;;;;;11.50;6.95;;;6.10;99.90;;;;;;4966621;28;20561;-73
2021/03/15 01:41:52;;;;;;;17.63;6.90;;;6.10;99.90;;;;;;4965654;28;20222;-73
2021/03/15 01:44:20;;;;;;;9.32;6.85;;;6.20;99.90;;;;;;4966558;28;20985;-73
2021/03/15 01:46:46;;;;;;;12.35;6.70;;;6.10;99.90;;;;;;4966381;28;20591;-73
2021/03/15 01:49:12;;;;;;;15.52;7.20;;;6.00;99.90;;;;;;4969273;28;20237;-73
2021/03/15 01:51:39;;;;;;;12.45;6.80;;;6.00;99.90;;;;;;4965467;28;20245;-73
2021/03/15 01:54:05;;;;;;;13.63;6.65;;;6.00;99.90;;;;;;4968177;28;20198;-73
2021/03/15 01:56:31;;;;;;;10.20;6.68;;;6.00;99.90;;;;;;4951041;28;20199;-73
2021/03/15 01:58:57;;;;;;;11.35;5.43;;;6.00;99.90;;;;;;4960066;28;20195;-73
2021/03/15 02:01:24;;;;;;;11.47;6.90;;;5.90;99.90;;;;;;4966858;28;20591;-73
2021/03/15 02:03:50;;;;;;;15.57;7.10;;;5.90;99.90;;;;;;4965224;28;20497;-73
2021/03/15 02:06:16;;;;;;;12.52;6.50;;;5.90;99.90;;;;;;4967774;28;20751;-73
2021/03/15 02:08:42;;;;;;;11.43;6.95;;;5.90;99.90;;;;;;4966431;28;20290;-73
2021/03/15 02:11:40;;;;;;;17.50;8.17;;;6.00;99.90;;;;;;4965900;28;20274;-73
2021/03/15 02:14:38;;;;;;;12.55;6.93;;;6.00;99.90;;;;;;4961442;28;20861;-73
2021/03/15 02:17:28;;;;;;;13.55;7.85;;;6.00;99.90;;;;;;4954670;28;20213;-73
2021/03/15 02:20:06;;;;;;;17.00;6.40;;;5.90;99.90;;;;;;4952831;28;20222;-73
2021/03/15 02:22:55;;;;;;;15.75;7.47;;;6.00;99.90;;;;;;4965579;28;20237;-73
2021/03/15 02:25:34;;;;;;;8.90;6.03;;;6.00;99.90;;;;;;4966654;28;20234;-73
2021/03/15 02:28:47;;;;;;;10.23;6.30;;;6.00;99.90;;;;;;4972389;28;20229;-73
2021/03/15 02:31:41;;;;;;;12.07;6.57;;;6.00;99.90;;;;;;4958921;28;20246;-73
2021/03/15 02:34:38;;;;;;;14.82;6.43;;;5.90;99.90;;;;;;4963854;28;20243;-73
2021/03/15 02:37:08;;;;;;;12.32;6.93;;;5.90;99.90;;;;;;4946327;28;20207;-73
2021/03/15 02:39:40;;;;;;;14.38;6.30;;;5.90;99.90;;;;;;4949423;28;20669;-73
2021/03/15 02:42:13;;;;;;;12.15;6.20;;;5.90;99.90;;;;;;4967022;28;20751;-73
2021/03/15 02:44:42;;;;;;;10.02;6.05;;;5.90;99.90;;;;;;4964358;28;20694;-73
2021/03/15 02:47:12;;;;;;;11.70;7.07;;;5.90;99.90;;;;;;4969756;28;20214;-73
2021/03/15 02:49:41;;;;;;;12.73;5.85;;;6.00;99.90;;;;;;4952328;28;20191;-73
2021/03/15 02:52:09;;;;;;;10.98;6.70;;;6.00;99.90;;;;;;4939075;28;20221;-73
2021/03/15 02:54:35;;;;;;;11.50;7.25;;;5.90;99.90;;;;;;4969726;28;20198;-74
2021/03/15 02:57:02;;;;;;;10.35;6.53;;;5.90;99.90;;;;;;4967753;28;20191;-73
2021/03/15 02:59:32;;;;;;;13.52;6.80;;;5.90;99.90;;;;;;4952798;28;20274;-73
2021/03/15 03:02:00;;;;;;;12.45;7.43;;;6.00;99.90;;;;;;4968436;28;20222;-73
2021/03/15 03:04:28;;;;;;;11.85;6.65;;;6.00;99.90;;;;;;4967565;28;20226;-73
2021/03/15 03:06:56;;;;;;;9.25;6.03;;;6.10;99.90;;;;;;4948866;28;20298;-73
2021/03/15 03:09:24;;;;;;;11.52;7.07;;;6.10;99.90;;;;;;4969727;28;20195;-73
2021/03/15 03:11:51;;;;;;;10.85;6.10;;;6.10;99.90;;;;;;4968660;28;20210;-73
2021/03/15 03:14:21;;;;;;;9.15;5.95;;;6.10;99.90;;;;;;4951334;28;20201;-73
2021/03/15 03:16:50;;;;;;;9.32;6.25;;;6.20;99.90;;;;;;4968243;28;20195;-73
2021/03/15 03:19:18;;;;;;;11.80;6.20;;;6.20;99.90;;;;;;4951321;28;20207;-73
2021/03/15 03:21:48;;;;;;;9.48;6.30;;;6.20;99.90;;;;;;4963627;28;20223;-73
2021/03/15 03:24:15;;;;;;;12.05;6.47;;;6.20;99.90;;;;;;4951702;28;20191;-73
2021/03/15 03:26:43;;;;;;;16.33;6.22;;;6.20;99.90;;;;;;4948276;28;20848;-73
2021/03/15 03:29:12;;;;;;;10.75;6.82;;;6.20;99.90;;;;;;4929782;29;20210;-73
2021/03/15 03:31:41;;;;;;;10.50;6.05;;;6.20;99.90;;;;;;4937728;28;20995;-73
2021/03/15 03:34:08;;;;;;;11.13;6.35;;;6.20;99.90;;;;;;4952778;28;20673;-73
2021/03/15 03:36:35;;;;;;;7.63;6.60;;;6.20;99.90;;;;;;4946616;28;20204;-73
2021/03/15 03:39:08;;;;;;;11.18;7.20;;;6.30;99.90;;;;;;4956102;28;20199;-73
2021/03/15 03:41:36;;;;;;;12.23;6.93;;;6.20;99.90;;;;;;4943090;28;20212;-73
2021/03/15 03:44:03;;;;;;;11.00;7.85;;;6.20;99.90;;;;;;4932702;29;20291;-73
2021/03/15 03:46:29;;;;;;;12.52;7.45;;;6.20;99.90;;;;;;4934373;29;20200;-73
2021/03/15 03:48:57;;;;;;;11.93;7.78;;;6.20;99.90;;;;;;4960407;28;20330;-73
2021/03/15 03:51:30;;;;;;;16.02;8.50;;;6.20;99.90;;;;;;4935446;28;20219;-73
2021/03/15 03:54:11;;;;;;;11.55;8.98;;;6.30;99.90;;;;;;4954489;28;20195;-73
2021/03/15 03:56:53;;;;;;;12.98;9.05;;;6.30;99.90;;;;;;4924289;29;20192;-73
2021/03/15 03:59:24;;;;;;;13.35;8.55;;;6.30;99.90;;;;;;4954218;28;20181;-73
2021/03/15 04:01:53;;;;;;;12.45;8.90;;;6.20;99.90;;;;;;4955587;28;20220;-73
2021/03/15 04:04:23;;;;;;;14.35;8.45;;;6.20;99.90;;;;;;4952185;28;20203;-73
2021/03/15 04:06:51;;;;;;;12.05;8.57;;;6.20;99.90;;;;;;4951396;28;20216;-73
2021/03/15 04:09:27;;;;;;;15.73;8.90;;;6.20;99.90;;;;;;4952213;28;20195;-73
2021/03/15 04:12:05;;;;;;;12.60;8.13;;;6.10;99.90;;;;;;4944206;28;20207;-73
2021/03/15 04:14:36;;;;;;;10.65;7.05;;;6.10;99.90;;;;;;4940684;28;20675;-73
2021/03/15 04:17:07;;;;;;;12.32;8.32;;;6.10;99.90;;;;;;4940586;29;20195;-73
2021/03/15 04:19:38;;;;;;;11.60;8.25;;;6.10;99.90;;;;;;4932144;29;20187;-73
2021/03/15 04:22:10;;;;;;;13.25;8.60;;;6.10;99.90;;;;;;4955503;28;20323;-73
2021/03/15 04:24:39;;;;;;;11.77;7.90;;;6.20;99.90;;;;;;4942652;29;20664;-73
2021/03/15 04:27:07;;;;;;;12.48;8.40;;;6.20;99.90;;;;;;4932699;28;20756;-73
2021/03/15 04:29:34;;;;;;;15.77;9.95;;;6.20;99.90;;;;;;4940462;28;20600;-73
2021/03/15 04:32:02;;;;;;;13.82;9.30;;;6.20;99.90;;;;;;4932511;29;20208;-73
2021/03/15 04:34:32;;;;;;;12.40;7.50;;;6.10;99.90;;;;;;4939870;29;20187;-72
2021/03/15 04:36:59;;;;;;;10.85;6.53;;;6.10;99.90;;;;;;4939712;28;20196;-73
2021/03/15 04:39:28;;;;;;;13.65;5.85;;;6.00;99.90;;;;;;4937659;29;20254;-73
2021/03/15 04:41:56;;;;;;;9.90;5.90;;;6.00;99.90;;;;;;4954791;28;20230;-72
2021/03/15 04:44:23;;;;;;;8.30;6.00;;;5.90;99.90;;;;;;4934918;29;21091;-72
2021/03/15 04:46:53;;;;;;;6.53;5.25;;;5.90;99.90;;;;;;4942178;29;20222;-72
2021/03/15 04:49:20;;;;;;;12.15;7.03;;;5.90;99.90;;;;;;4952673;28;20203;-72
2021/03/15 04:51:48;;;;;;;10.50;6.78;;;5.90;99.90;;;;;;4952313;28;20223;-73
2021/03/15 04:54:15;;;;;;;11.52;5.93;;;5.90;99.90;;;;;;4942468;29;20835;-73
2021/03/15 04:56:42;;;;;;;12.38;8.23;;;5.90;99.90;;;;;;4938868;29;20185;-72
2021/03/15 04:59:09;;;;;;;9.68;7.25;;;5.90;99.90;;;;;;4944726;28;20212;-73
2021/03/15 05:01:39;;;;;;;10.10;7.32;;;5.90;99.90;;;;;;4921723;29;20267;-73
2021/03/15 05:04:11;;;;;;;12.23;6.90;;;5.90;99.90;;;;;;4935359;29;20719;-73
2021/03/15 05:06:42;;;;;;;10.27;5.97;;;5.80;99.90;;;;;;4940425;28;20696;-73
2021/03/15 05:09:10;;;;;;;11.23;7.00;;;5.70;99.90;;;;;;4952243;28;20235;-73
2021/03/15 05:11:38;;;;;;;8.68;6.40;;;5.70;99.90;;;;;;4940588;29;20204;-73
2021/03/15 05:14:07;;;;;;;10.30;7.03;;;5.60;99.90;;;;;;4951361;28;20295;-73
2021/03/15 05:16:38;;;;;;;10.43;7.35;;;5.60;99.90;;;;;;4936810;28;20714;-73
2021/03/15 05:19:09;;;;;;;8.30;6.05;;;5.60;99.90;;;;;;4932980;29;20243;-73
2021/03/15 05:21:38;;;;;;;10.13;7.18;;;5.50;99.90;;;;;;4938222;28;20546;-73
2021/03/15 05:24:05;;;;;;;11.43;7.28;;;5.60;99.90;;;;;;4950123;28;20243;-73
2021/03/15 05:26:37;;;;;;;8.43;6.85;;;5.60;99.90;;;;;;4961957;28;20252;-73
2021/03/15 05:29:10;;;;;;;11.80;6.72;;;5.60;99.90;;;;;;4944071;28;20214;-73
2021/03/15 05:31:45;;;;;;;8.48;6.25;;;5.60;99.90;;;;;;4953958;28;20222;-72
2021/03/15 05:34:13;;;;;;;11.45;7.85;;;5.60;99.90;;;;;;4944252;29;20274;-72
2021/03/15 05:36:40;;;;;;;13.68;6.20;;;5.60;99.90;;;;;;4961163;28;20199;-73
2021/03/15 05:39:07;;;;;;;9.07;5.88;;;5.60;99.90;;;;;;4919865;29;20191;-73
2021/03/15 05:41:51;;;;;;;12.52;6.10;;;5.60;99.90;;;;;;4938623;29;20256;-73
2021/03/15 05:44:42;;;;;;;7.97;5.32;;;5.70;99.90;;;;;;4942055;29;20199;-73
2021/03/15 05:47:28;;;;;;;8.52;5.88;;;5.70;99.90;;;;;;4944260;28;20210;-72
2021/03/15 05:50:18;;;;;;;9.02;6.50;;;5.70;99.90;;;;;;4907203;29;20216;-73
2021/03/15 05:52:59;;;;;;;8.35;6.35;;;5.70;99.90;;;;;;4907367;29;20939;-73
2021/03/15 05:55:34;;;;;;;7.50;6.32;;;5.70;99.90;;;;;;4902380;29;20208;-74
2021/03/15 05:58:07;;;;;;;7.55;6.10;;;5.70;99.90;;;;;;4895044;29;20197;-74
2021/03/15 06:00:38;;;;;;;8.15;5.88;;;5.70;99.90;;;;;;4910541;29;20220;-73
2021/03/15 06:03:28;;;;;;;7.90;6.35;;;5.70;99.90;;;;;;4907722;29;20227;-74
2021/03/15 06:05:59;;;;;;;7.40;5.40;;;5.70;99.90;;;;;;4895760;29;20233;-73
2021/03/15 06:08:30;;;;;;;8.63;5.80;;;5.80;99.90;;;;;;4910286;29;20217;-74
2021/03/15 06:11:05;;;;;;;9.88;6.57;;;5.80;99.90;;;;;;4910389;29;20610;-73
2021/03/15 06:13:33;;;;;;;9.15;6.00;;;5.80;99.90;;;;;;4909686;29;20682;-73
2021/03/15 06:16:01;;;;;;;7.60;6.43;;;5.80;99.90;;;;;;4894641;29;20209;-73
2021/03/15 06:18:28;;;;;;;7.75;6.78;;;5.80;99.90;;;;;;4910037;29;20207;-73
2021/03/15 06:20:55;;;;;;;10.43;7.25;;;5.80;99.90;;;;;;4913009;29;20212;-74
2021/03/15 06:23:23;;;;;;;14.77;8.75;;;5.70;99.90;;;;;;4909980;29;20232;-74
2021/03/15 06:25:51;;;;;;;11.70;7.72;;;5.70;99.90;;;;;;4900391;29;20242;-74
2021/03/15 06:28:18;;;;;;;14.70;9.40;;;5.70;99.90;;;;;;4947475;29;20326;-73
2021/03/15 06:30:47;;;;;;;16.83;9.60;;;5.70;99.90;;;;;;4950889;28;20208;-75
2021/03/15 06:33:16;;;;;;;13.38;9.55;;;5.70;99.90;;;;;;4930804;29;20239;-74
2021/03/15 06:35:57;;;;;;;16.20;9.55;;;5.70;99.90;;;;;;4966230;28;20196;-71
2021/03/15 06:38:24;;;;;;;13.43;7.72;;;5.70;99.90;;;;;;4950568;28;20200;-72
2021/03/15 06:40:52;;;;;;;10.82;7.65;;;5.70;99.90;;;;;;4950480;28;20234;-71
2021/03/15 06:43:20;;;;;;;11.00;7.60;;;5.80;99.90;;;;;;4949667;28;20196;-71
2021/03/15 06:45:49;;;;;;;13.07;7.88;;;5.90;99.90;;;;;;4967154;28;20198;-72
2021/03/15 06:48:15;;;;;;;11.95;7.88;;;6.00;99.90;;;;;;4950443;28;20212;-72
2021/03/15 06:50:41;;;;;;;13.60;9.27;;;6.00;99.90;;;;;;4953516;28;20250;-73
2021/03/15 06:53:07;;;;;;;14.82;8.85;;;5.90;99.90;;;;;;4964697;28;20692;-72
2021/03/15 06:55:36;;;;;;;15.85;9.32;;;5.90;99.90;;;;;;4950551;28;20183;-72
2021/03/15 06:58:22;;;;;;;16.27;9.80;;;5.90;99.90;;;;;;4965910;28;20195;-72
2021/03/15 07:01:07;;;;;;;14.57;9.95;;;5.90;99.90;;;;;;4949920;29;20234;-72
2021/03/15 07:03:37;;;;;;;15.07;10.05;;;6.00;99.90;;;;;;4965787;28;20608;-71
2021/03/15 07:06:07;;;;;;;15.95;9.23;;;6.10;99.90;;;;;;4951435;28;20593;-73
2021/03/15 07:08:34;;;;;;;17.63;10.50;;;6.20;99.90;;;;;;4951010;28;20219;-72
2021/03/15 07:11:01;;;;;;;15.18;9.55;;;6.30;99.90;;;;;;4964809;28;20196;-73
2021/03/15 07:13:37;;;;;;;17.75;9.73;;;6.40;99.90;;;;;;4950237;29;20203;-71
2021/03/15 07:16:04;;;;;;;15.93;10.60;;;6.40;99.90;;;;;;4964551;28;20246;-71
2021/03/15 07:18:34;;;;;;;21.50;12.73;;;6.50;99.90;;;;;;4967295;28;20562;-72
2021/03/15 07:21:05;;;;;;;25.30;13.40;;;6.60;99.90;;;;;;4934269;28;20189;-72
2021/03/15 07:23:37;;;;;;;26.65;15.15;;;6.50;99.90;;;;;;4952946;28;21002;-72
2021/03/15 07:26:17;;;;;;;23.00;12.90;;;6.50;99.90;;;;;;4965881;28;20219;-72
2021/03/15 07:28:47;;;;;;;18.00;10.85;;;6.50;99.90;;;;;;4999784;23;20251;-82
2021/03/15 07:31:32;;;;;;;23.67;11.43;;;6.60;99.90;;;;;;4990457;28;20280;-81
2021/03/15 07:34:02;;;;;;;15.50;8.73;;;6.60;99.90;;;;;;4958459;28;20195;-84
2021/03/15 07:36:33;;;;;;;12.13;9.10;;;6.60;99.90;;;;;;4958578;28;20199;-81
2021/03/15 07:39:08;;;;;;;13.07;9.07;;;6.60;99.90;;;;;;4959432;28;20199;-84
2021/03/15 07:41:45;;;;;;;14.23;8.95;;;6.70;99.90;;;;;;4943131;28;20465;-82
2021/03/15 07:44:29;;;;;;;17.30;9.43;;;6.80;99.90;;;;;;4942976;28;20619;-84
2021/03/15 07:47:04;;;;;;;15.38;9.93;;;6.80;99.90;;;;;;4927409;28;20223;-83
2021/03/15 07:49:44;;;;;;;14.13;8.97;;;6.90;99.90;;;;;;4967275;28;20203;-84
2021/03/15 07:52:15;;;;;;;20.73;9.40;;;6.90;99.90;;;;;;4958265;28;20446;-83
2021/03/15 07:54:45;;;;;;;12.02;8.45;;;7.00;99.90;;;;;;4942523;28;20260;-82
2021/03/15 07:57:29;;;;;;;16.83;9.05;;;7.10;99.90;;;;;;4918657;29;20200;-83
2021/03/15 07:59:58;;;;;;;11.13;6.90;;;7.10;99.90;;;;;;4895837;29;20196;-83
2021/03/15 08:02:33;;;;;;;12.30;7.60;;;7.10;99.90;;;;;;4903209;29;20208;-81
2021/03/15 08:05:05;;;;;;;14.45;8.20;;;7.10;99.90;;;;;;4902739;29;20188;-80
2021/03/15 08:07:36;;;;;;;15.70;7.20;;;7.10;99.90;;;;;;4903801;29;20568;-87
2021/03/15 08:10:08;;;;;;;15.38;8.50;;;7.10;99.90;;;;;;4902911;29;20188;-81
2021/03/15 08:12:38;;;;;;;13.60;9.13;;;7.00;99.90;;;;;;4886686;29;20193;-82
2021/03/15 08:15:09;;;;;;;15.30;10.23;;;7.10;99.90;;;;;;4887673;29;20447;-87
2021/03/15 08:17:48;;;;;;;12.75;8.80;;;7.10;99.90;;;;;;4888263;29;20625;-87
2021/03/15 08:20:15;;;;;;;17.08;10.05;;;7.10;99.90;;;;;;4919308;29;20203;-88
2021/03/15 08:22:50;;;;;;;14.43;9.25;;;7.10;99.90;;;;;;4934785;29;20235;-81
2021/03/15 08:25:18;;;;;;;15.98;10.40;;;7.00;99.90;;;;;;4887033;29;20219;-81
2021/03/15 08:27:52;;;;;;;15.60;9.93;;;7.00;99.90;;;;;;4904343;28;20265;-79
2021/03/15 08:30:24;;;;;;;19.90;10.32;;;7.00;99.90;;;;;;4948365;28;20202;-80
2021/03/15 08:32:51;;;;;;;21.33;9.35;;;6.90;99.90;;;;;;4931079;29;20273;-80
2021/03/15 08:35:20;;;;;;;15.90;9.55;;;7.00;99.90;;;;;;4965712;28;20186;-80
2021/03/15 08:38:12;;;;;;;15.33;8.70;;;7.00;99.90;;;;;;4958064;28;20544;-80
2021/03/15 08:40:44;;;;;;;13.75;8.57;;;7.00;99.90;;;;;;4896200;29;20461;-80
2021/03/15 08:43:18;;;;;;;10.20;7.63;;;7.10;99.90;;;;;;4892531;29;20204;-80
2021/03/15 08:45:56;;;;;;;14.20;9.63;;;7.10;99.90;;;;;;4875381;29;20441;-83
2021/03/15 08:48:36;;;;;;;14.05;8.32;;;7.10;99.90;;;;;;4890318;29;20435;-80
2021/03/15 08:51:07;;;;;;;12.20;9.15;;;7.20;99.90;;;;;;4907670;29;20542;-82
2021/03/15 08:53:38;;;;;;;18.43;9.50;;;7.30;99.90;;;;;;4873594;29;20656;-80
2021/03/15 08:56:15;;;;;;;14.33;9.20;;;7.30;99.90;;;;;;4875689;29;20539;-80
2021/03/15 08:58:50;;;;;;;17.23;8.73;;;7.30;99.90;;;;;;4876325;29;20501;-80
2021/03/15 09:01:47;;;;;;;17.10;8.20;;;7.30;99.90;;;;;;4880733;29;20228;-81
2021/03/15 09:04:47;;;;;;;12.93;7.43;;;7.20;99.90;;;;;;4862195;29;20289;-80
2021/03/15 09:07:31;;;;;;;19.80;9.10;;;7.20;99.90;;;;;;4891893;29;20254;-80
2021/03/15 09:10:27;;;;;;;16.58;9.20;;;7.20;99.90;;;;;;4888512;29;20276;-80
2021/03/15 09:13:13;;;;;;;15.32;9.30;;;7.30;99.90;;;;;;4887802;29;20186;-81
2021/03/15 09:15:43;;;;;;;15.05;10.05;;;7.30;99.90;;;;;;4908642;29;20197;-82
2021/03/15 09:18:37;;;;;;;14.13;8.73;;;7.50;99.90;;;;;;4944680;28;20298;-82
2021/03/15 09:21:22;;;;;;;13.43;8.43;;;7.60;99.90;;;;;;4979101;28;20187;-81
2021/03/15 09:23:51;;;;;;;15.70;9.70;;;7.70;99.90;;;;;;4974044;28;20440;-81
2021/03/15 09:26:25;;;;;;;12.40;8.30;;;7.80;99.90;;;;;;4992310;28;20570;-81
2021/03/15 09:28:52;;;;;;;10.50;6.88;;;7.80;99.90;;;;;;5008042;28;20225;-79
2021/03/15 09:31:27;;;;;;;12.05;7.32;;;7.80;99.90;;;;;;4982570;28;20187;-81
2021/03/15 09:33:53;;;;;;;7.65;6.85;;;7.70;99.90;;;;;;4957270;28;20690;-81
2021/03/15 09:36:30;;;;;;;8.25;6.50;;;7.70;99.90;;;;;;4942305;28;20542;-80
2021/03/15 09:38:59;;;;;;;13.23;7.67;;;7.70;99.90;;;;;;4934025;28;20247;-80
2021/03/15 09:41:30;;;;;;;14.60;9.60;;;7.80;99.90;;;;;;4983838;28;20442;-80
2021/03/15 09:44:01;;;;;;;19.88;7.38;;;7.80;99.90;;;;;;4935404;28;20935;-80
2021/03/15 09:46:32;;;;;;;12.40;7.20;;;7.90;99.90;;;;;;4942322;28;20252;-81
2021/03/15 09:49:00;;;;;;;11.97;7.33;;;8.10;99.90;;;;;;4929232;28;20762;-82
2021/03/15 09:51:30;;;;;;;11.70;8.03;;;8.30;99.90;;;;;;4937953;28;20503;-82
2021/03/15 09:54:38;;;;;;;11.07;7.77;;;8.40;99.90;;;;;;4941187;28;20982;-82
2021/03/15 09:57:13;;;;;;;12.87;7.40;;;8.50;99.90;;;;;;4936535;28;20475;-81
2021/03/15 10:00:11;;;;;;;7.70;5.87;;;8.60;99.90;;;;;;4964500;28;20463;-81
2021/03/15 10:03:22;;;;;;;9.37;6.33;;;8.70;99.90;;;;;;4944181;28;20974;-81
2021/03/15 10:06:10;;;;;;;10.13;6.60;;;8.60;99.90;;;;;;4951484;28;20484;-81
2021/03/15 10:08:58;;;;;;;15.25;6.50;;;8.60;99.90;;;;;;4959530;28;20435;-80
2021/03/15 10:11:45;;;;;;;9.25;5.95;;;8.40;99.90;;;;;;4972746;28;20254;-81
2021/03/15 10:14:38;;;;;;;13.85;7.00;;;8.40;99.90;;;;;;4954283;28;20218;-81
2021/03/15 10:17:30;;;;;;;12.00;5.68;;;8.30;99.90;;;;;;4956767;28;20207;-82
2021/03/15 10:20:41;;;;;;;8.35;5.50;;;8.20;99.90;;;;;;4973978;28;20578;-80
2021/03/15 10:23:21;;;;;;;7.78;4.70;;;8.20;99.90;;;;;;4989095;28;20730;-81
2021/03/15 10:25:57;;;;;;;9.65;5.45;;;8.10;99.90;;;;;;4946851;28;20636;-80
2021/03/15 10:28:31;;;;;;;9.82;5.30;;;8.10;99.90;;;;;;4964758;28;20227;-82
2021/03/15 10:31:07;;;;;;;12.95;6.10;;;8.20;99.90;;;;;;4952465;28;20195;-83
2021/03/15 10:33:50;;;;;;;9.93;5.93;;;8.10;99.90;;;;;;4969105;28;20203;-82
2021/03/15 10:36:25;;;;;;;18.50;5.90;;;8.10;99.90;;;;;;4953216;28;20584;-81
2021/03/15 10:39:21;;;;;;;9.80;4.70;;;8.20;99.90;;;;;;4960260;28;20203;-83
2021/03/15 10:41:56;;;;;;;7.20;4.40;;;8.40;99.90;;;;;;4987803;28;20222;-82
2021/03/15 10:44:35;;;;;;;12.80;3.83;;;8.50;99.90;;;;;;4953220;28;20454;-82
2021/03/15 10:47:08;;;;;;;12.70;4.53;;;8.60;99.90;;;;;;4984615;28;20909;-83
2021/03/15 10:49:42;;;;;;;9.88;4.50;;;8.60;99.90;;;;;;4965740;28;20597;-81
2021/03/15 10:52:36;;;;;;;6.30;4.90;;;9.00;99.90;;;;;;4971094;28;20296;-82
2021/03/15 10:55:10;;;;;;;10.50;5.70;;;9.40;99.90;;;;;;4984536;28;20913;-82
2021/03/15 10:58:08;;;;;;;12.30;6.80;;;9.50;99.90;;;;;;4984781;28;20449;-85
2021/03/15 11:00:42;;;;;;;9.40;5.70;;;9.80;99.90;;;;;;4975317;28;20439;-80
2021/03/15 11:03:24;;;;;;;8.80;5.40;;;10.10;99.90;;;;;;4946416;28;20476;-81
2021/03/15 11:06:19;;;;;;;6.20;5.60;;;10.40;99.90;;;;;;4966659;28;20456;-81
2021/03/15 11:08:59;;;;;;;14.53;5.90;;;10.60;99.90;;;;;;4980509;28;20430;-82
2021/03/15 11:11:33;;;;;;;8.60;5.63;;;10.70;99.90;;;;;;4960001;28;20429;-81
2021/03/15 11:14:13;;;;;;;8.87;5.80;;;10.60;99.90;;;;;;4929651;28;20441;-81
2021/03/15 11:17:00;;;;;;;10.57;8.40;;;10.30;99.90;;;;;;4966313;28;20457;-81
2021/03/15 11:19:29;;;;;;;8.03;5.87;;;10.10;99.90;;;;;;4993976;28;20425;-81
2021/03/15 11:21:55;;;;;;;7.03;5.67;;;9.90;99.90;;;;;;4943952;28;20460;-81
2021/03/15 11:24:29;;;;;;;9.87;6.40;;;9.70;99.90;;;;;;4972508;28;20525;-82
2021/03/15 11:27:34;;;;;;;7.30;6.60;;;9.50;99.90;;;;;;4971297;28;20871;-80
2021/03/15 11:30:18;;;;;;;6.93;5.97;;;9.40;99.90;;;;;;4946199;28;20467;-81
2021/03/15 11:33:13;;;;;;;11.03;6.07;;;9.30;99.90;;;;;;4915798;29;20446;-81
2021/03/15 11:36:01;;;;;;;6.97;6.17;;;9.60;99.90;;;;;;4916137;29;20561;-81
2021/03/15 11:38:57;;;;;;;5.90;5.20;;;9.80;99.90;;;;;;4915654;29;20449;-81
2021/03/15 11:41:37;;;;;;;12.37;5.90;;;9.80;99.90;;;;;;4900198;29;20547;-82
2021/03/15 11:44:08;;;;;;;8.73;6.40;;;9.50;99.90;;;;;;4913705;29;20507;-81
2021/03/15 11:46:34;;;;;;;10.37;6.57;;;9.50;99.90;;;;;;4899504;29;20497;-81
2021/03/15 11:49:06;;;;;;;6.57;5.97;;;9.70;99.90;;;;;;4915528;29;20556;-81
2021/03/15 11:51:57;;;;;;;6.40;5.90;;;9.90;99.90;;;;;;4915840;29;20943;-82
2021/03/15 11:54:30;;;;;;;8.97;6.80;;;10.00;99.90;;;;;;4900509;29;20506;-81
2021/03/15 11:56:58;;;;;;;11.30;8.17;;;10.00;99.90;;;;;;4915133;29;20456;-82
2021/03/15 11:59:29;;;;;;;6.23;5.73;;;9.90;99.90;;;;;;4899920;29;20440;-82
2021/03/15 12:02:08;;;;;;;11.17;7.13;;;9.80;99.90;;;;;;4915593;29;20441;-82
2021/03/15 12:04:40;;;;;;;9.10;7.10;;;9.80;99.90;;;;;;4898966;29;20446;-81
2021/03/15 12:07:09;;;;;;;7.77;6.90;;;9.70;99.90;;;;;;4899331;29;20474;-81
2021/03/15 12:09:55;;;;;;;6.43;5.73;;;9.70;99.90;;;;;;4940542;28;20471;-82
2021/03/15 12:12:24;;;;;;;6.30;5.90;;;9.80;99.90;;;;;;5009602;28;20438;-81
2021/03/15 12:15:10;;;;;;;7.70;6.97;;;9.90;99.90;;;;;;4961183;28;20861;-83
2021/03/15 12:17:41;;;;;;;6.63;6.00;;;10.10;99.90;;;;;;4988633;28;20432;-81
2021/03/15 12:20:10;;;;;;;6.90;6.30;;;10.30;99.90;;;;;;4993886;28;20962;-82
2021/03/15 12:22:48;;;;;;;6.60;5.80;;;10.60;99.90;;;;;;4961800;28;20448;-83
2021/03/15 12:25:21;;;;;;;5.83;5.30;;;10.80;99.90;;;;;;4974787;28;20832;-83
2021/03/15 12:28:00;;;;;;;6.33;5.83;;;10.70;99.90;;;;;;4992202;28;20484;-84
2021/03/15 12:30:30;;;;;;;12.77;6.07;;;10.40;99.90;;;;;;4967082;28;20499;-84
2021/03/15 12:33:03;;;;;;;6.43;5.93;;;10.40;99.90;;;;;;4962089;28;20196;-82
2021/03/15 12:35:33;;;;;;;6.00;5.60;;;10.50;99.90;;;;;;4955734;28;20485;-83
2021/03/15 12:38:04;;;;;;;7.50;6.33;;;10.60;99.90;;;;;;4961030;28;20784;-84
2021/03/15 12:40:41;;;;;;;5.87;5.47;;;10.50;99.90;;;;;;4993514;28;20459;-83
2021/03/15 12:43:14;;;;;;;7.27;5.50;;;10.30;99.90;;;;;;4961217;28;20452;-83
2021/03/15 12:45:48;;;;;;;7.60;6.90;;;10.20;99.90;;;;;;4925457;28;20778;-83
2021/03/15 12:48:14;;;;;;;6.20;5.70;;;10.00;99.90;;;;;;4974384;28;20445;-81
2021/03/15 13:00:41;;;;;;;5.83;5.43;;;10.30;99.90;;;;;;4886739;29;20533;-80
2021/03/15 13:16:19;;;;;;;8.47;7.53;;;10.30;99.90;;;;;;4821317;29;20487;-84
2021/03/15 13:22:58;;;;;;;7.93;6.13;;;9.90;99.90;;;;;;4806835;29;20646;-82
2021/03/15 13:35:42;;;;;;;6.93;5.80;;;9.40;99.90;;;;;;4905430;29;20457;-82
2021/03/15 13:48:13;;;;;;;6.50;5.90;;;10.50;99.90;;;;;;4908876;29;20617;-80
2021/03/15 13:51:41;;;;;;;9.33;5.93;;;10.40;99.90;;;;;;4910020;29;20467;-80
2021/03/15 13:59:18;;;;;;;8.73;3.10;;;8.50;99.90;;;;;;4970893;28;20467;-83
2021/03/15 14:01:49;;;;;;;5.00;2.50;;;8.00;99.90;;;;;;4953709;28;20188;-83
2021/03/15 14:04:28;;;;;;;5.33;2.77;;;8.10;99.90;;;;;;4968086;28;20866;-80
2021/03/15 14:07:03;;;;;;;6.27;2.63;;;8.40;99.90;;;;;;4985573;28;20491;-81
2021/03/15 14:09:34;;;;;;;5.93;2.83;;;8.70;99.90;;;;;;4984679;28;20453;-80
2021/03/15 14:12:13;;;;;;;6.93;3.40;;;8.80;99.90;;;;;;4947736;28;20496;-81
2021/03/15 14:14:50;;;;;;;11.10;4.97;;;8.90;99.90;;;;;;4977584;28;20554;-80